Terminal Aerodrome Forecast
Issued by NWS

Home | Current Version | Previous Version | Text Only | Print | Product List | Glossary On
Versions: 1 2 3 4 5 6 7 8 9 10 11 12
739
FTUS46 KSGX 210520
TAFPSP
TAF
KPSP 210520Z 2106/2206 32013KT P6SM SKC
     FM210900 32007KT P6SM SCT250
     FM211800 33012G22KT P6SM SCT250
     FM212000 33020G30KT P6SM SCT250
     FM220500 33012G20KT P6SM SCT250=

USA.gov is the U.S. government's official web portal to all federal, state and local government web resources and services.